Gadsby, Canada
Current Conditions -  °F | °C
As of 3:00 PM on Monday 24 Nov 2014 (Local Time) from CYQF Reporting Station
Broken Clouds Broken Clouds  
Wind Chill: 26°   Ceiling: 19000
Heat Index: 34°   Visibility: 15mi
Dew Point: 23°   Wind: 10mph
Humidity: 65%   Direction: 170°S
Pressure: 29.87"   Gusts: NA
Location:  52.3°N, 112.35°W
Report Text: CYQF 242200Z 17009KT 15SM BKN190 01/M05 A2987 RMK CI7 SLP156
Loading
Personal Weather Stations






























Interactive Weather Map New forecast layout! Learn more

10-Day Weather Forecast

Advertisements
Track Severe Weather on mobile